sensor_id;sensor_type;location;lat;lon;timestamp;temperature;humidity
30385;DHT22;17181;51.002;4.096;2023-09-19T00:02:05;16.40;99.90
30385;DHT22;17181;51.002;4.096;2023-09-19T00:04:37;16.40;99.90
30385;DHT22;17181;51.002;4.096;2023-09-19T00:07:05;16.30;99.90
30385;DHT22;17181;51.002;4.096;2023-09-19T00:09:39;16.30;99.90
30385;DHT22;17181;51.002;4.096;2023-09-19T00:12:06;16.30;99.90
30385;DHT22;17181;51.002;4.096;2023-09-19T00:14:35;16.30;99.90
30385;DHT22;17181;51.002;4.096;2023-09-19T00:17:04;16.30;99.90
30385;DHT22;17181;51.002;4.096;2023-09-19T00:19:37;16.30;99.90
30385;DHT22;17181;51.002;4.096;2023-09-19T00:22:03;16.20;99.90
30385;DHT22;17181;51.002;4.096;2023-09-19T00:24:30;16.30;99.90
30385;DHT22;17181;51.002;4.096;2023-09-19T00:26:59;16.30;99.90
30385;DHT22;17181;51.002;4.096;2023-09-19T00:29:27;16.20;99.90
30385;DHT22;17181;51.002;4.096;2023-09-19T00:31:59;16.30;99.90
30385;DHT22;17181;51.002;4.096;2023-09-19T00:34:29;16.20;99.90
30385;DHT22;17181;51.002;4.096;2023-09-19T00:36:57;16.30;99.90
30385;DHT22;17181;51.002;4.096;2023-09-19T00:39:23;16.30;99.90
30385;DHT22;17181;51.002;4.096;2023-09-19T00:41:54;16.20;99.90
30385;DHT22;17181;51.002;4.096;2023-09-19T00:44:24;16.30;99.90
30385;DHT22;17181;51.002;4.096;2023-09-19T00:46:50;16.10;99.90
30385;DHT22;17181;51.002;4.096;2023-09-19T00:49:18;16.20;99.90
30385;DHT22;17181;51.002;4.096;2023-09-19T00:51:48;16.10;99.90
30385;DHT22;17181;51.002;4.096;2023-09-19T00:54:15;16.10;99.90
30385;DHT22;17181;51.002;4.096;2023-09-19T00:56:45;16.10;99.90
30385;DHT22;17181;51.002;4.096;2023-09-19T00:59:11;16.10;99.90
30385;DHT22;17181;51.002;4.096;2023-09-19T01:01:38;16.10;99.90
30385;DHT22;17181;51.002;4.096;2023-09-19T01:04:10;16.00;99.90
30385;DHT22;17181;51.002;4.096;2023-09-19T01:06:39;16.10;99.90
30385;DHT22;17181;51.002;4.096;2023-09-19T01:09:06;16.00;99.90
30385;DHT22;17181;51.002;4.096;2023-09-19T01:11:40;16.00;99.90
30385;DHT22;17181;51.002;4.096;2023-09-19T01:14:38;16.00;99.90
30385;DHT22;17181;51.002;4.096;2023-09-19T01:17:23;16.00;99.90
30385;DHT22;17181;51.002;4.096;2023-09-19T01:23:11;16.10;99.90
30385;DHT22;17181;51.002;4.096;2023-09-19T01:30:52;16.00;99.90
30385;DHT22;17181;51.002;4.096;2023-09-19T01:33:23;15.90;99.90
30385;DHT22;17181;51.002;4.096;2023-09-19T01:35:50;16.00;99.90
30385;DHT22;17181;51.002;4.096;2023-09-19T01:38:16;16.00;99.90
30385;DHT22;17181;51.002;4.096;2023-09-19T01:41:06;16.00;99.90
30385;DHT22;17181;51.002;4.096;2023-09-19T01:43:42;16.00;99.90
30385;DHT22;17181;51.002;4.096;2023-09-19T01:46:19;16.00;99.90
30385;DHT22;17181;51.002;4.096;2023-09-19T01:51:56;16.00;99.90
30385;DHT22;17181;51.002;4.096;2023-09-19T01:54:50;16.00;99.90
30385;DHT22;17181;51.002;4.096;2023-09-19T01:57:29;16.10;99.90
30385;DHT22;17181;51.002;4.096;2023-09-19T02:00:06;16.10;99.90
30385;DHT22;17181;51.002;4.096;2023-09-19T02:02:47;16.10;99.90
30385;DHT22;17181;51.002;4.096;2023-09-19T02:05:16;16.10;99.90
30385;DHT22;17181;51.002;4.096;2023-09-19T02:07:49;16.10;99.90
30385;DHT22;17181;51.002;4.096;2023-09-19T02:10:19;16.20;99.90
30385;DHT22;17181;51.002;4.096;2023-09-19T02:12:50;16.00;99.90
30385;DHT22;17181;51.002;4.096;2023-09-19T02:15:18;16.20;99.90
30385;DHT22;17181;51.002;4.096;2023-09-19T02:18:05;16.10;99.90
30385;DHT22;17181;51.002;4.096;2023-09-19T02:23:49;16.40;99.90
30385;DHT22;17181;51.002;4.096;2023-09-19T02:26:15;16.40;99.90
30385;DHT22;17181;51.002;4.096;2023-09-19T02:28:42;16.30;99.90
30385;DHT22;17181;51.002;4.096;2023-09-19T02:31:08;16.30;99.90
30385;DHT22;17181;51.002;4.096;2023-09-19T02:33:34;16.40;99.90
30385;DHT22;17181;51.002;4.096;2023-09-19T02:36:02;16.40;99.90
30385;DHT22;17181;51.002;4.096;2023-09-19T02:38:36;16.30;99.90
30385;DHT22;17181;51.002;4.096;2023-09-19T02:41:15;16.30;99.90
30385;DHT22;17181;51.002;4.096;2023-09-19T02:43:41;16.30;99.90
30385;DHT22;17181;51.002;4.096;2023-09-19T02:46:09;16.20;99.90
30385;DHT22;17181;51.002;4.096;2023-09-19T02:48:37;16.20;99.90
30385;DHT22;17181;51.002;4.096;2023-09-19T02:51:04;16.10;99.90
30385;DHT22;17181;51.002;4.096;2023-09-19T02:53:30;16.00;99.90
30385;DHT22;17181;51.002;4.096;2023-09-19T02:55:57;16.10;99.90
30385;DHT22;17181;51.002;4.096;2023-09-19T02:58:25;16.10;99.90
30385;DHT22;17181;51.002;4.096;2023-09-19T03:00:51;16.10;99.90
30385;DHT22;17181;51.002;4.096;2023-09-19T03:03:18;16.20;99.90
30385;DHT22;17181;51.002;4.096;2023-09-19T03:05:44;16.20;99.90
30385;DHT22;17181;51.002;4.096;2023-09-19T03:08:15;16.30;99.90
30385;DHT22;17181;51.002;4.096;2023-09-19T03:10:41;16.20;99.90
30385;DHT22;17181;51.002;4.096;2023-09-19T03:13:07;16.20;99.90
30385;DHT22;17181;51.002;4.096;2023-09-19T03:15:36;16.20;99.90
30385;DHT22;17181;51.002;4.096;2023-09-19T03:18:05;16.20;99.90
30385;DHT22;17181;51.002;4.096;2023-09-19T03:20:33;16.20;99.90
30385;DHT22;17181;51.002;4.096;2023-09-19T03:22:59;16.20;99.90
30385;DHT22;17181;51.002;4.096;2023-09-19T03:25:27;16.20;99.90
30385;DHT22;17181;51.002;4.096;2023-09-19T03:27:57;16.10;99.90
30385;DHT22;17181;51.002;4.096;2023-09-19T03:30:24;16.10;99.90
30385;DHT22;17181;51.002;4.096;2023-09-19T03:32:50;16.20;99.90
30385;DHT22;17181;51.002;4.096;2023-09-19T03:35:17;16.00;99.90
30385;DHT22;17181;51.002;4.096;2023-09-19T03:37:43;15.90;99.90
30385;DHT22;17181;51.002;4.096;2023-09-19T03:40:10;15.70;99.90
30385;DHT22;17181;51.002;4.096;2023-09-19T03:42:41;15.50;99.90
30385;DHT22;17181;51.002;4.096;2023-09-19T03:45:10;15.40;99.90
30385;DHT22;17181;51.002;4.096;2023-09-19T03:47:46;15.30;99.90
30385;DHT22;17181;51.002;4.096;2023-09-19T03:50:18;15.20;99.90
30385;DHT22;17181;51.002;4.096;2023-09-19T03:52:44;15.20;99.90
30385;DHT22;17181;51.002;4.096;2023-09-19T03:55:10;15.10;99.90
30385;DHT22;17181;51.002;4.096;2023-09-19T03:57:38;15.10;99.90
30385;DHT22;17181;51.002;4.096;2023-09-19T04:00:04;15.00;99.90
30385;DHT22;17181;51.002;4.096;2023-09-19T04:02:40;15.00;99.90
30385;DHT22;17181;51.002;4.096;2023-09-19T04:05:07;14.90;99.90
30385;DHT22;17181;51.002;4.096;2023-09-19T04:07:33;14.90;99.90
30385;DHT22;17181;51.002;4.096;2023-09-19T04:10:00;14.90;99.90
30385;DHT22;17181;51.002;4.096;2023-09-19T04:12:29;14.90;99.90
30385;DHT22;17181;51.002;4.096;2023-09-19T04:14:55;14.90;99.90
30385;DHT22;17181;51.002;4.096;2023-09-19T04:17:21;14.90;99.90
30385;DHT22;17181;51.002;4.096;2023-09-19T04:19:50;14.90;99.90
30385;DHT22;17181;51.002;4.096;2023-09-19T04:22:16;15.00;99.90
30385;DHT22;17181;51.002;4.096;2023-09-19T04:24:42;15.00;99.90
30385;DHT22;17181;51.002;4.096;2023-09-19T04:27:12;15.00;99.90
30385;DHT22;17181;51.002;4.096;2023-09-19T04:29:40;14.90;99.90
30385;DHT22;17181;51.002;4.096;2023-09-19T04:32:07;15.00;99.90
30385;DHT22;17181;51.002;4.096;2023-09-19T04:34:35;15.00;99.90
30385;DHT22;17181;51.002;4.096;2023-09-19T04:37:01;15.10;99.90
30385;DHT22;17181;51.002;4.096;2023-09-19T04:39:28;15.10;99.90
30385;DHT22;17181;51.002;4.096;2023-09-19T04:41:54;15.00;99.90
30385;DHT22;17181;51.002;4.096;2023-09-19T04:44:23;15.00;99.90
30385;DHT22;17181;51.002;4.096;2023-09-19T04:46:54;15.00;99.90
30385;DHT22;17181;51.002;4.096;2023-09-19T06:17:58;15.40;99.90
30385;DHT22;17181;51.002;4.096;2023-09-19T06:20:28;15.30;99.90
30385;DHT22;17181;51.002;4.096;2023-09-19T06:22:54;15.30;99.90
30385;DHT22;17181;51.002;4.096;2023-09-19T06:25:21;15.40;99.90
30385;DHT22;17181;51.002;4.096;2023-09-19T06:27:48;15.40;99.90
30385;DHT22;17181;51.002;4.096;2023-09-19T06:30:14;15.50;99.90
30385;DHT22;17181;51.002;4.096;2023-09-19T06:32:41;15.50;99.90
30385;DHT22;17181;51.002;4.096;2023-09-19T06:35:10;15.60;99.90
30385;DHT22;17181;51.002;4.096;2023-09-19T06:37:40;15.70;99.90
30385;DHT22;17181;51.002;4.096;2023-09-19T06:40:13;15.70;99.90
30385;DHT22;17181;51.002;4.096;2023-09-19T06:42:47;15.80;99.90
30385;DHT22;17181;51.002;4.096;2023-09-19T06:45:14;15.80;99.90
30385;DHT22;17181;51.002;4.096;2023-09-19T06:47:46;15.80;99.90
30385;DHT22;17181;51.002;4.096;2023-09-19T06:50:22;15.80;99.90
30385;DHT22;17181;51.002;4.096;2023-09-19T06:52:53;15.90;99.90
30385;DHT22;17181;51.002;4.096;2023-09-19T06:55:21;15.90;99.90
30385;DHT22;17181;51.002;4.096;2023-09-19T06:57:50;15.90;99.90
30385;DHT22;17181;51.002;4.096;2023-09-19T07:00:16;15.90;99.90
30385;DHT22;17181;51.002;4.096;2023-09-19T07:05:30;15.90;99.90
30385;DHT22;17181;51.002;4.096;2023-09-19T07:07:59;16.00;99.90
30385;DHT22;17181;51.002;4.096;2023-09-19T07:10:27;16.00;99.90
30385;DHT22;17181;51.002;4.096;2023-09-19T07:15:24;16.00;99.90
30385;DHT22;17181;51.002;4.096;2023-09-19T07:17:51;16.10;99.90
30385;DHT22;17181;51.002;4.096;2023-09-19T07:20:18;16.10;99.90
30385;DHT22;17181;51.002;4.096;2023-09-19T07:22:44;16.20;99.90
30385;DHT22;17181;51.002;4.096;2023-09-19T07:25:10;16.20;99.90
30385;DHT22;17181;51.002;4.096;2023-09-19T07:27:36;16.30;99.90
30385;DHT22;17181;51.002;4.096;2023-09-19T07:30:02;16.30;99.90
30385;DHT22;17181;51.002;4.096;2023-09-19T07:32:28;16.30;99.90
30385;DHT22;17181;51.002;4.096;2023-09-19T07:34:54;16.40;99.90
30385;DHT22;17181;51.002;4.096;2023-09-19T07:37:20;16.40;99.90
30385;DHT22;17181;51.002;4.096;2023-09-19T07:39:47;16.50;99.90
30385;DHT22;17181;51.002;4.096;2023-09-19T07:42:13;16.60;99.90
30385;DHT22;17181;51.002;4.096;2023-09-19T07:44:44;16.60;99.90
30385;DHT22;17181;51.002;4.096;2023-09-19T07:47:14;16.70;99.90
30385;DHT22;17181;51.002;4.096;2023-09-19T07:49:40;16.70;99.90
30385;DHT22;17181;51.002;4.096;2023-09-19T08:48:12;18.00;99.90
30385;DHT22;17181;51.002;4.096;2023-09-19T08:50:52;18.10;99.90
30385;DHT22;17181;51.002;4.096;2023-09-19T08:53:27;18.20;99.90
30385;DHT22;17181;51.002;4.096;2023-09-19T08:55:55;18.30;99.90
30385;DHT22;17181;51.002;4.096;2023-09-19T08:58:27;18.30;99.90
30385;DHT22;17181;51.002;4.096;2023-09-19T09:00:58;18.40;99.90
30385;DHT22;17181;51.002;4.096;2023-09-19T09:03:32;18.40;99.90
30385;DHT22;17181;51.002;4.096;2023-09-19T09:06:00;18.50;99.90
30385;DHT22;17181;51.002;4.096;2023-09-19T09:08:27;18.50;99.90
30385;DHT22;17181;51.002;4.096;2023-09-19T09:10:54;18.50;99.90
30385;DHT22;17181;51.002;4.096;2023-09-19T09:13:21;18.60;99.90
30385;DHT22;17181;51.002;4.096;2023-09-19T09:15:50;18.50;99.90
30385;DHT22;17181;51.002;4.096;2023-09-19T09:18:16;18.50;99.90
30385;DHT22;17181;51.002;4.096;2023-09-19T09:20:42;18.50;99.90
30385;DHT22;17181;51.002;4.096;2023-09-19T09:23:10;18.50;99.90
30385;DHT22;17181;51.002;4.096;2023-09-19T09:25:55;18.50;99.90
30385;DHT22;17181;51.002;4.096;2023-09-19T09:28:26;18.60;99.90
30385;DHT22;17181;51.002;4.096;2023-09-19T09:30:54;18.60;99.90
30385;DHT22;17181;51.002;4.096;2023-09-19T09:33:21;18.70;99.90
30385;DHT22;17181;51.002;4.096;2023-09-19T09:35:58;18.60;99.90
30385;DHT22;17181;51.002;4.096;2023-09-19T09:38:28;18.60;99.90
30385;DHT22;17181;51.002;4.096;2023-09-19T09:40:58;18.60;99.90
30385;DHT22;17181;51.002;4.096;2023-09-19T09:43:37;18.60;99.90
30385;DHT22;17181;51.002;4.096;2023-09-19T09:46:23;18.60;99.90
30385;DHT22;17181;51.002;4.096;2023-09-19T09:49:02;18.60;99.90
30385;DHT22;17181;51.002;4.096;2023-09-19T09:51:59;18.60;99.90
30385;DHT22;17181;51.002;4.096;2023-09-19T09:54:28;18.60;99.90
30385;DHT22;17181;51.002;4.096;2023-09-19T09:57:00;18.60;99.90
30385;DHT22;17181;51.002;4.096;2023-09-19T09:59:56;18.70;99.90
30385;DHT22;17181;51.002;4.096;2023-09-19T10:02:42;18.90;99.90
30385;DHT22;17181;51.002;4.096;2023-09-19T10:05:16;18.90;99.90
30385;DHT22;17181;51.002;4.096;2023-09-19T10:07:49;19.00;99.90
30385;DHT22;17181;51.002;4.096;2023-09-19T10:10:33;19.10;99.90
30385;DHT22;17181;51.002;4.096;2023-09-19T10:13:10;19.10;99.90
30385;DHT22;17181;51.002;4.096;2023-09-19T10:15:47;19.20;99.90
30385;DHT22;17181;51.002;4.096;2023-09-19T10:18:27;19.20;99.90
30385;DHT22;17181;51.002;4.096;2023-09-19T10:20:56;19.30;99.90
30385;DHT22;17181;51.002;4.096;2023-09-19T10:23:22;19.30;99.90
30385;DHT22;17181;51.002;4.096;2023-09-19T10:25:56;19.40;99.90
30385;DHT22;17181;51.002;4.096;2023-09-19T10:28:23;19.40;99.90
30385;DHT22;17181;51.002;4.096;2023-09-19T10:30:53;19.60;99.90
30385;DHT22;17181;51.002;4.096;2023-09-19T10:33:21;19.70;99.90
30385;DHT22;17181;51.002;4.096;2023-09-19T10:35:49;19.90;99.90
30385;DHT22;17181;51.002;4.096;2023-09-19T10:38:23;19.90;99.90
30385;DHT22;17181;51.002;4.096;2023-09-19T10:40:55;20.00;99.90
30385;DHT22;17181;51.002;4.096;2023-09-19T10:43:31;20.20;99.90
30385;DHT22;17181;51.002;4.096;2023-09-19T10:46:07;20.10;99.90
30385;DHT22;17181;51.002;4.096;2023-09-19T10:48:41;20.40;99.90
30385;DHT22;17181;51.002;4.096;2023-09-19T10:51:12;20.40;99.90
30385;DHT22;17181;51.002;4.096;2023-09-19T10:53:53;20.50;99.90
30385;DHT22;17181;51.002;4.096;2023-09-19T10:56:25;20.50;99.90
30385;DHT22;17181;51.002;4.096;2023-09-19T10:59:06;20.40;99.90
30385;DHT22;17181;51.002;4.096;2023-09-19T11:02:17;20.50;99.90
30385;DHT22;17181;51.002;4.096;2023-09-19T11:04:45;20.50;99.90
30385;DHT22;17181;51.002;4.096;2023-09-19T11:07:14;20.50;99.90
30385;DHT22;17181;51.002;4.096;2023-09-19T11:09:54;20.50;99.90
30385;DHT22;17181;51.002;4.096;2023-09-19T11:15:07;20.60;99.90
30385;DHT22;17181;51.002;4.096;2023-09-19T11:17:37;20.70;99.90
30385;DHT22;17181;51.002;4.096;2023-09-19T11:30:33;21.10;99.20
30385;DHT22;17181;51.002;4.096;2023-09-19T11:33:21;21.10;98.60
30385;DHT22;17181;51.002;4.096;2023-09-19T11:36:08;21.10;98.30
30385;DHT22;17181;51.002;4.096;2023-09-19T11:49:35;20.90;98.60
30385;DHT22;17181;51.002;4.096;2023-09-19T11:52:09;20.80;98.40
30385;DHT22;17181;51.002;4.096;2023-09-19T11:54:36;20.90;98.80
30385;DHT22;17181;51.002;4.096;2023-09-19T11:57:08;20.80;98.80
30385;DHT22;17181;51.002;4.096;2023-09-19T11:59:38;20.80;98.10
30385;DHT22;17181;51.002;4.096;2023-09-19T12:02:18;20.90;98.10
30385;DHT22;17181;51.002;4.096;2023-09-19T12:04:55;20.90;98.20
30385;DHT22;17181;51.002;4.096;2023-09-19T12:07:22;21.00;97.60
30385;DHT22;17181;51.002;4.096;2023-09-19T12:09:50;21.00;97.10
30385;DHT22;17181;51.002;4.096;2023-09-19T12:12:20;21.00;97.40
30385;DHT22;17181;51.002;4.096;2023-09-19T12:14:53;21.00;97.50
30385;DHT22;17181;51.002;4.096;2023-09-19T12:17:37;21.00;97.80
30385;DHT22;17181;51.002;4.096;2023-09-19T12:20:05;21.10;98.10
30385;DHT22;17181;51.002;4.096;2023-09-19T12:22:44;21.10;97.80
30385;DHT22;17181;51.002;4.096;2023-09-19T12:25:19;21.10;97.60
30385;DHT22;17181;51.002;4.096;2023-09-19T12:27:52;21.10;97.80
30385;DHT22;17181;51.002;4.096;2023-09-19T12:30:19;21.10;97.50
30385;DHT22;17181;51.002;4.096;2023-09-19T12:32:49;21.10;97.60
30385;DHT22;17181;51.002;4.096;2023-09-19T12:35:34;21.20;97.90
30385;DHT22;17181;51.002;4.096;2023-09-19T12:38:04;21.30;98.00
30385;DHT22;17181;51.002;4.096;2023-09-19T12:40:32;21.30;97.50
30385;DHT22;17181;51.002;4.096;2023-09-19T12:43:03;21.30;97.50
30385;DHT22;17181;51.002;4.096;2023-09-19T12:45:31;21.30;97.40
30385;DHT22;17181;51.002;4.096;2023-09-19T12:48:24;21.20;97.40
30385;DHT22;17181;51.002;4.096;2023-09-19T12:51:08;21.10;97.30
30385;DHT22;17181;51.002;4.096;2023-09-19T12:53:39;21.00;97.40
30385;DHT22;17181;51.002;4.096;2023-09-19T12:56:09;21.00;97.70
30385;DHT22;17181;51.002;4.096;2023-09-19T12:58:56;20.90;97.70
30385;DHT22;17181;51.002;4.096;2023-09-19T13:01:29;20.90;97.90
30385;DHT22;17181;51.002;4.096;2023-09-19T13:04:20;20.90;98.10
30385;DHT22;17181;51.002;4.096;2023-09-19T13:06:54;21.00;98.20
30385;DHT22;17181;51.002;4.096;2023-09-19T13:09:22;21.00;98.10
30385;DHT22;17181;51.002;4.096;2023-09-19T13:11:54;21.10;98.00
30385;DHT22;17181;51.002;4.096;2023-09-19T13:14:22;21.00;97.90
30385;DHT22;17181;51.002;4.096;2023-09-19T13:16:55;21.00;97.60
30385;DHT22;17181;51.002;4.096;2023-09-19T13:19:42;21.00;98.00
30385;DHT22;17181;51.002;4.096;2023-09-19T13:22:50;21.00;98.10
30385;DHT22;17181;51.002;4.096;2023-09-19T13:25:21;20.90;98.20
30385;DHT22;17181;51.002;4.096;2023-09-19T13:27:52;20.90;98.40
30385;DHT22;17181;51.002;4.096;2023-09-19T13:30:20;21.00;98.50
30385;DHT22;17181;51.002;4.096;2023-09-19T13:32:49;21.00;98.40
30385;DHT22;17181;51.002;4.096;2023-09-19T13:35:15;21.00;98.20
30385;DHT22;17181;51.002;4.096;2023-09-19T13:37:42;21.10;98.20
30385;DHT22;17181;51.002;4.096;2023-09-19T13:40:14;21.00;98.00
30385;DHT22;17181;51.002;4.096;2023-09-19T13:42:40;21.20;98.00
30385;DHT22;17181;51.002;4.096;2023-09-19T13:45:10;21.20;98.10
30385;DHT22;17181;51.002;4.096;2023-09-19T13:47:38;21.30;98.30
30385;DHT22;17181;51.002;4.096;2023-09-19T13:50:07;21.30;97.90
30385;DHT22;17181;51.002;4.096;2023-09-19T13:52:39;21.30;97.80
30385;DHT22;17181;51.002;4.096;2023-09-19T13:55:14;21.40;98.00
30385;DHT22;17181;51.002;4.096;2023-09-19T13:57:48;21.40;98.20
30385;DHT22;17181;51.002;4.096;2023-09-19T14:00:20;21.30;98.10
30385;DHT22;17181;51.002;4.096;2023-09-19T14:02:49;21.30;97.90
30385;DHT22;17181;51.002;4.096;2023-09-19T14:05:16;21.30;98.00
30385;DHT22;17181;51.002;4.096;2023-09-19T14:07:43;21.30;98.00
30385;DHT22;17181;51.002;4.096;2023-09-19T14:10:10;21.30;97.90
30385;DHT22;17181;51.002;4.096;2023-09-19T14:12:40;21.30;97.90
30385;DHT22;17181;51.002;4.096;2023-09-19T14:15:10;21.40;98.00
30385;DHT22;17181;51.002;4.096;2023-09-19T14:17:37;21.40;97.80
30385;DHT22;17181;51.002;4.096;2023-09-19T14:20:04;21.50;97.70
30385;DHT22;17181;51.002;4.096;2023-09-19T14:22:32;21.50;97.60
30385;DHT22;17181;51.002;4.096;2023-09-19T14:24:59;21.40;97.50
30385;DHT22;17181;51.002;4.096;2023-09-19T14:27:38;21.40;97.60
30385;DHT22;17181;51.002;4.096;2023-09-19T14:30:05;21.40;97.60
30385;DHT22;17181;51.002;4.096;2023-09-19T14:32:31;21.20;97.60
30385;DHT22;17181;51.002;4.096;2023-09-19T14:34:57;21.10;97.80
30385;DHT22;17181;51.002;4.096;2023-09-19T14:37:23;21.10;97.90
30385;DHT22;17181;51.002;4.096;2023-09-19T14:39:54;21.10;98.10
30385;DHT22;17181;51.002;4.096;2023-09-19T14:42:20;21.00;98.10
30385;DHT22;17181;51.002;4.096;2023-09-19T14:44:46;20.90;98.30
30385;DHT22;17181;51.002;4.096;2023-09-19T14:47:15;20.80;98.20
30385;DHT22;17181;51.002;4.096;2023-09-19T14:49:42;20.80;98.40
30385;DHT22;17181;51.002;4.096;2023-09-19T14:52:11;20.70;98.40
30385;DHT22;17181;51.002;4.096;2023-09-19T14:54:38;20.70;98.20
30385;DHT22;17181;51.002;4.096;2023-09-19T14:57:06;20.60;98.30
30385;DHT22;17181;51.002;4.096;2023-09-19T14:59:34;20.50;98.40
30385;DHT22;17181;51.002;4.096;2023-09-19T15:02:04;20.50;98.60
30385;DHT22;17181;51.002;4.096;2023-09-19T15:04:33;20.50;98.60
30385;DHT22;17181;51.002;4.096;2023-09-19T15:07:04;20.60;98.70
30385;DHT22;17181;51.002;4.096;2023-09-19T15:09:43;20.50;98.70
30385;DHT22;17181;51.002;4.096;2023-09-19T15:12:16;20.50;98.80
30385;DHT22;17181;51.002;4.096;2023-09-19T15:15:21;20.50;98.80
30385;DHT22;17181;51.002;4.096;2023-09-19T15:17:47;20.60;98.90
30385;DHT22;17181;51.002;4.096;2023-09-19T15:20:13;20.50;98.90
30385;DHT22;17181;51.002;4.096;2023-09-19T15:22:40;20.50;98.80
30385;DHT22;17181;51.002;4.096;2023-09-19T15:25:06;20.50;98.80
30385;DHT22;17181;51.002;4.096;2023-09-19T15:27:32;20.50;98.90
30385;DHT22;17181;51.002;4.096;2023-09-19T15:30:01;20.50;99.00
30385;DHT22;17181;51.002;4.096;2023-09-19T15:32:30;20.50;99.10
30385;DHT22;17181;51.002;4.096;2023-09-19T15:34:57;20.50;99.20
30385;DHT22;17181;51.002;4.096;2023-09-19T15:37:23;20.50;99.30
30385;DHT22;17181;51.002;4.096;2023-09-19T15:39:50;20.50;99.30
30385;DHT22;17181;51.002;4.096;2023-09-19T15:42:19;20.50;99.40
30385;DHT22;17181;51.002;4.096;2023-09-19T15:44:48;20.40;99.40
30385;DHT22;17181;51.002;4.096;2023-09-19T15:47:20;20.40;99.60
30385;DHT22;17181;51.002;4.096;2023-09-19T15:49:49;20.40;99.50
30385;DHT22;17181;51.002;4.096;2023-09-19T15:52:17;20.40;99.60
30385;DHT22;17181;51.002;4.096;2023-09-19T15:54:45;20.30;99.60
30385;DHT22;17181;51.002;4.096;2023-09-19T15:57:11;20.30;99.70
30385;DHT22;17181;51.002;4.096;2023-09-19T15:59:39;20.30;99.70
30385;DHT22;17181;51.002;4.096;2023-09-19T16:02:06;20.30;99.70
30385;DHT22;17181;51.002;4.096;2023-09-19T16:04:37;20.30;99.60
30385;DHT22;17181;51.002;4.096;2023-09-19T16:07:06;20.30;99.60
30385;DHT22;17181;51.002;4.096;2023-09-19T16:09:34;20.30;99.70
30385;DHT22;17181;51.002;4.096;2023-09-19T16:12:01;20.30;99.80
30385;DHT22;17181;51.002;4.096;2023-09-19T16:14:29;20.30;99.80
30385;DHT22;17181;51.002;4.096;2023-09-19T16:16:56;20.30;99.80
30385;DHT22;17181;51.002;4.096;2023-09-19T16:19:23;20.30;99.80
30385;DHT22;17181;51.002;4.096;2023-09-19T16:21:49;20.30;99.90
30385;DHT22;17181;51.002;4.096;2023-09-19T16:24:15;20.30;99.80
30385;DHT22;17181;51.002;4.096;2023-09-19T16:26:42;20.20;99.80
30385;DHT22;17181;51.002;4.096;2023-09-19T16:29:08;20.30;99.90
30385;DHT22;17181;51.002;4.096;2023-09-19T16:31:35;20.30;99.90
30385;DHT22;17181;51.002;4.096;2023-09-19T16:34:01;20.30;99.90
30385;DHT22;17181;51.002;4.096;2023-09-19T16:36:28;20.30;99.90
30385;DHT22;17181;51.002;4.096;2023-09-19T16:38:54;20.30;99.90
30385;DHT22;17181;51.002;4.096;2023-09-19T16:41:25;20.40;99.90
30385;DHT22;17181;51.002;4.096;2023-09-19T16:43:52;20.30;99.90
30385;DHT22;17181;51.002;4.096;2023-09-19T16:46:20;20.10;99.90
30385;DHT22;17181;51.002;4.096;2023-09-19T16:48:47;20.00;99.90
30385;DHT22;17181;51.002;4.096;2023-09-19T16:51:15;20.00;99.90
30385;DHT22;17181;51.002;4.096;2023-09-19T16:53:46;19.90;99.90
30385;DHT22;17181;51.002;4.096;2023-09-19T16:56:13;19.70;99.90
30385;DHT22;17181;51.002;4.096;2023-09-19T16:58:44;19.60;99.90
30385;DHT22;17181;51.002;4.096;2023-09-19T17:01:13;19.50;99.90
30385;DHT22;17181;51.002;4.096;2023-09-19T17:03:45;19.40;99.90
30385;DHT22;17181;51.002;4.096;2023-09-19T17:06:14;19.30;99.90
30385;DHT22;17181;51.002;4.096;2023-09-19T17:08:43;19.20;99.90
30385;DHT22;17181;51.002;4.096;2023-09-19T17:11:11;19.20;99.90
30385;DHT22;17181;51.002;4.096;2023-09-19T17:13:41;19.10;99.90
30385;DHT22;17181;51.002;4.096;2023-09-19T17:16:09;19.20;99.90
30385;DHT22;17181;51.002;4.096;2023-09-19T17:18:37;19.20;99.90
30385;DHT22;17181;51.002;4.096;2023-09-19T17:21:04;19.10;99.90
30385;DHT22;17181;51.002;4.096;2023-09-19T17:23:36;19.10;99.90
30385;DHT22;17181;51.002;4.096;2023-09-19T17:26:08;19.10;99.90
30385;DHT22;17181;51.002;4.096;2023-09-19T17:28:40;19.10;99.90
30385;DHT22;17181;51.002;4.096;2023-09-19T17:31:21;19.10;99.90
30385;DHT22;17181;51.002;4.096;2023-09-19T17:33:48;19.10;99.90
30385;DHT22;17181;51.002;4.096;2023-09-19T17:36:19;19.10;99.90
30385;DHT22;17181;51.002;4.096;2023-09-19T17:38:51;19.10;99.90
30385;DHT22;17181;51.002;4.096;2023-09-19T17:41:17;19.00;99.90
30385;DHT22;17181;51.002;4.096;2023-09-19T17:43:50;19.00;99.90
30385;DHT22;17181;51.002;4.096;2023-09-19T17:46:28;19.00;99.90
30385;DHT22;17181;51.002;4.096;2023-09-19T17:48:58;19.20;99.90
30385;DHT22;17181;51.002;4.096;2023-09-19T17:51:25;19.10;99.90
30385;DHT22;17181;51.002;4.096;2023-09-19T17:53:53;19.20;99.90
30385;DHT22;17181;51.002;4.096;2023-09-19T17:56:29;19.20;99.90
30385;DHT22;17181;51.002;4.096;2023-09-19T17:58:58;19.20;99.90
30385;DHT22;17181;51.002;4.096;2023-09-19T18:56:09;19.40;99.90
30385;DHT22;17181;51.002;4.096;2023-09-19T18:58:37;19.40;99.90
30385;DHT22;17181;51.002;4.096;2023-09-19T19:01:04;19.40;99.90
30385;DHT22;17181;51.002;4.096;2023-09-19T19:03:30;19.40;99.90
30385;DHT22;17181;51.002;4.096;2023-09-19T19:05:57;19.40;99.90
30385;DHT22;17181;51.002;4.096;2023-09-19T19:08:26;19.40;99.90
30385;DHT22;17181;51.002;4.096;2023-09-19T19:10:52;19.40;99.90
30385;DHT22;17181;51.002;4.096;2023-09-19T19:13:18;19.50;99.90
30385;DHT22;17181;51.002;4.096;2023-09-19T19:15:44;19.50;99.90
30385;DHT22;17181;51.002;4.096;2023-09-19T19:18:10;19.50;99.90
30385;DHT22;17181;51.002;4.096;2023-09-19T19:20:36;19.60;99.90
30385;DHT22;17181;51.002;4.096;2023-09-19T19:23:05;19.50;99.90
30385;DHT22;17181;51.002;4.096;2023-09-19T19:25:32;19.60;99.90
30385;DHT22;17181;51.002;4.096;2023-09-19T19:27:58;19.50;99.90
30385;DHT22;17181;51.002;4.096;2023-09-19T19:30:23;19.60;99.90
30385;DHT22;17181;51.002;4.096;2023-09-19T19:32:49;19.60;99.90
30385;DHT22;17181;51.002;4.096;2023-09-19T19:35:17;19.50;99.90
30385;DHT22;17181;51.002;4.096;2023-09-19T19:37:44;19.50;99.90
30385;DHT22;17181;51.002;4.096;2023-09-19T19:40:10;19.60;99.90
30385;DHT22;17181;51.002;4.096;2023-09-19T19:42:36;19.60;99.90
30385;DHT22;17181;51.002;4.096;2023-09-19T19:45:04;19.60;99.90
30385;DHT22;17181;51.002;4.096;2023-09-19T19:47:31;19.70;99.90
30385;DHT22;17181;51.002;4.096;2023-09-19T19:49:59;19.60;99.90
30385;DHT22;17181;51.002;4.096;2023-09-19T19:52:26;19.60;99.90
30385;DHT22;17181;51.002;4.096;2023-09-19T19:54:55;19.70;99.90